Time;durP1;ratioP1;P1;durP2;ratioP2;P2;SDS_P1;SDS_P2;PMS_P1;PMS_P2;Temp;Humidity;BMP_temperature;BMP_pressure;BME280_temperature;BME280_humidity;BME280_pressure;Samples;Min_cycle;Max_cycle;Signal;HPM_P1;HPM_P2
2021/07/21 00:01:51;;;;;;;22.53;13.97;;;;;;;;;;5064094;28;20432;-74
2021/07/21 00:04:17;;;;;;;24.07;13.43;;;;;;;;;;5072494;28;20432;-74
2021/07/21 00:06:43;;;;;;;20.13;12.83;;;;;;;;;;5071612;28;20432;-74
2021/07/21 00:09:09;;;;;;;18.30;11.83;;;;;;;;;;5072327;28;20401;-74
2021/07/21 00:14:20;;;;;;;19.80;12.50;;;;;;;;;;5073599;28;20936;-74
2021/07/21 00:17:06;;;;;;;20.17;12.40;;;;;;;;;;5064461;28;20517;-73
2021/07/21 00:22:17;;;;;;;19.83;11.97;;;;;;;;;;5056239;28;20620;-73
2021/07/21 00:24:47;;;;;;;26.50;12.00;;;;;;;;;;5056048;28;20885;-74
2021/07/21 00:27:13;;;;;;;15.40;11.13;;;;;;;;;;5045758;28;20437;-74
2021/07/21 00:29:39;;;;;;;20.47;11.80;;;;;;;;;;5055872;28;20409;-74
2021/07/21 00:32:05;;;;;;;19.77;11.90;;;;;;;;;;5055979;28;20902;-74
2021/07/21 00:34:31;;;;;;;22.03;13.60;;;;;;;;;;5056063;28;20849;-74
2021/07/21 00:36:57;;;;;;;19.37;12.30;;;;;;;;;;5062262;28;20925;-74
2021/07/21 00:39:23;;;;;;;20.90;13.70;;;;;;;;;;5075691;28;20449;-74
2021/07/21 00:41:50;;;;;;;19.63;12.77;;;;;;;;;;5069793;28;20429;-73
2021/07/21 00:44:16;;;;;;;17.37;11.83;;;;;;;;;;5055577;28;20451;-74
2021/07/21 00:46:42;;;;;;;20.73;13.13;;;;;;;;;;5055648;28;20438;-74
2021/07/21 00:49:08;;;;;;;16.73;11.53;;;;;;;;;;5055996;28;20739;-74
2021/07/21 00:51:34;;;;;;;19.83;13.70;;;;;;;;;;5055878;28;20432;-73
2021/07/21 00:54:03;;;;;;;16.43;12.47;;;;;;;;;;5056545;28;20417;-73
2021/07/21 00:56:30;;;;;;;18.17;11.70;;;;;;;;;;5057596;28;20421;-73
2021/07/21 00:58:56;;;;;;;18.90;12.20;;;;;;;;;;5076365;28;20822;-74
2021/07/21 01:01:22;;;;;;;21.43;12.90;;;;;;;;;;5074341;28;20409;-73
2021/07/21 01:03:48;;;;;;;16.27;12.10;;;;;;;;;;5075386;28;20768;-74
2021/07/21 01:06:14;;;;;;;18.70;11.60;;;;;;;;;;5074439;28;20527;-74
2021/07/21 01:08:40;;;;;;;16.80;12.20;;;;;;;;;;5075347;28;20424;-74
2021/07/21 01:11:12;;;;;;;18.43;10.97;;;;;;;;;;5075427;28;20397;-74
2021/07/21 01:13:46;;;;;;;16.67;12.20;;;;;;;;;;5055605;28;20421;-73
2021/07/21 01:16:14;;;;;;;21.57;13.30;;;;;;;;;;5058956;28;20449;-73
2021/07/21 01:18:59;;;;;;;18.70;13.00;;;;;;;;;;5070829;28;20448;-74
2021/07/21 01:21:27;;;;;;;22.03;13.47;;;;;;;;;;5076927;28;20400;-74
2021/07/21 01:24:13;;;;;;;19.17;11.83;;;;;;;;;;5074982;28;20428;-74
2021/07/21 01:26:58;;;;;;;20.80;12.30;;;;;;;;;;5074945;28;20424;-74
2021/07/21 01:29:26;;;;;;;18.13;12.97;;;;;;;;;;5054508;28;20410;-74
2021/07/21 01:31:53;;;;;;;19.83;11.87;;;;;;;;;;5088888;28;20427;-74
2021/07/21 01:34:20;;;;;;;17.30;12.30;;;;;;;;;;5056186;28;20452;-74
2021/07/21 01:36:50;;;;;;;17.17;11.33;;;;;;;;;;5074698;28;20408;-74
2021/07/21 01:39:17;;;;;;;20.10;12.77;;;;;;;;;;5055604;28;20534;-74
2021/07/21 01:41:47;;;;;;;21.63;13.80;;;;;;;;;;5054826;28;20769;-74
2021/07/21 01:44:16;;;;;;;17.47;12.10;;;;;;;;;;5054480;28;20864;-74
2021/07/21 01:46:43;;;;;;;21.27;12.17;;;;;;;;;;5073622;28;20413;-74
2021/07/21 01:49:11;;;;;;;17.57;12.17;;;;;;;;;;5073693;28;20816;-74
2021/07/21 01:51:37;;;;;;;20.67;13.57;;;;;;;;;;5056619;28;20807;-74
2021/07/21 01:54:04;;;;;;;17.10;11.50;;;;;;;;;;5073198;28;20428;-74
2021/07/21 01:56:32;;;;;;;20.37;13.00;;;;;;;;;;5074458;28;20405;-74
2021/07/21 01:58:59;;;;;;;21.73;13.10;;;;;;;;;;5073061;28;20505;-74
2021/07/21 02:01:27;;;;;;;16.77;10.97;;;;;;;;;;5074173;28;20416;-74
2021/07/21 02:03:54;;;;;;;18.63;12.17;;;;;;;;;;5054715;28;20425;-74
2021/07/21 02:06:20;;;;;;;18.23;11.97;;;;;;;;;;5054032;28;20977;-74
2021/07/21 02:08:47;;;;;;;18.80;11.67;;;;;;;;;;5081278;28;20439;-73
2021/07/21 02:11:14;;;;;;;20.77;12.63;;;;;;;;;;5094247;28;20961;-74
2021/07/21 02:13:40;;;;;;;17.40;12.83;;;;;;;;;;5062860;28;20439;-74
2021/07/21 02:16:06;;;;;;;17.50;11.23;;;;;;;;;;5074017;28;20818;-74
2021/07/21 02:18:33;;;;;;;20.43;11.90;;;;;;;;;;5072910;28;20461;-73
2021/07/21 02:21:02;;;;;;;21.40;12.80;;;;;;;;;;5074303;28;20761;-74
2021/07/21 02:23:29;;;;;;;23.00;13.00;;;;;;;;;;5063488;28;20507;-73
2021/07/21 02:25:58;;;;;;;18.67;12.00;;;;;;;;;;5054549;28;20418;-74
2021/07/21 02:28:24;;;;;;;19.03;12.27;;;;;;;;;;5063135;28;20432;-74
2021/07/21 02:30:52;;;;;;;20.20;11.43;;;;;;;;;;5083038;28;20401;-74
2021/07/21 02:33:27;;;;;;;19.90;12.43;;;;;;;;;;5084460;28;20814;-74
2021/07/21 02:35:53;;;;;;;17.70;12.07;;;;;;;;;;5085953;28;20434;-74
2021/07/21 02:38:20;;;;;;;16.20;10.57;;;;;;;;;;5080397;28;20498;-74
2021/07/21 02:40:46;;;;;;;18.70;12.60;;;;;;;;;;5086020;28;20489;-74
2021/07/21 02:43:12;;;;;;;19.47;13.53;;;;;;;;;;5082089;28;20429;-74
2021/07/21 02:45:38;;;;;;;18.87;11.70;;;;;;;;;;5073101;28;20413;-73
2021/07/21 02:48:05;;;;;;;16.90;12.47;;;;;;;;;;5061517;28;20491;-73
2021/07/21 02:50:31;;;;;;;19.00;12.73;;;;;;;;;;5053699;28;20410;-74
2021/07/21 02:53:04;;;;;;;24.07;13.07;;;;;;;;;;5058215;28;20430;-73
2021/07/21 02:56:00;;;;;;;16.30;11.77;;;;;;;;;;5073217;28;20432;-74
2021/07/21 02:58:44;;;;;;;18.20;11.60;;;;;;;;;;5057087;28;20459;-74
2021/07/21 03:01:11;;;;;;;17.33;11.60;;;;;;;;;;5073221;28;20420;-74
2021/07/21 03:03:38;;;;;;;18.67;11.60;;;;;;;;;;5082118;28;20417;-74
2021/07/21 03:06:06;;;;;;;20.80;12.70;;;;;;;;;;5072961;28;20441;-74
2021/07/21 03:08:32;;;;;;;17.27;12.87;;;;;;;;;;5064689;28;20615;-74
2021/07/21 03:11:00;;;;;;;23.97;13.17;;;;;;;;;;5053017;28;20406;-74
2021/07/21 03:13:41;;;;;;;22.03;13.53;;;;;;;;;;5059684;28;20944;-73
2021/07/21 03:16:07;;;;;;;16.07;11.90;;;;;;;;;;5072998;28;20496;-74
2021/07/21 03:18:33;;;;;;;19.60;12.70;;;;;;;;;;5063482;28;20473;-74
2021/07/21 03:20:59;;;;;;;21.57;11.70;;;;;;;;;;5056912;28;20493;-74
2021/07/21 03:23:26;;;;;;;19.33;11.73;;;;;;;;;;5054731;28;20827;-74
2021/07/21 03:25:53;;;;;;;21.63;13.10;;;;;;;;;;5064533;28;20949;-74
2021/07/21 03:28:20;;;;;;;18.10;12.13;;;;;;;;;;5052882;28;20499;-74
2021/07/21 03:30:46;;;;;;;20.73;13.03;;;;;;;;;;5052728;28;20449;-74
2021/07/21 03:33:12;;;;;;;19.57;11.67;;;;;;;;;;5056927;28;20565;-74
2021/07/21 03:35:38;;;;;;;18.33;11.53;;;;;;;;;;5072946;28;20421;-74
2021/07/21 03:38:05;;;;;;;18.17;12.60;;;;;;;;;;5071148;28;20472;-74
2021/07/21 03:40:31;;;;;;;20.90;13.83;;;;;;;;;;5052918;28;20430;-74
2021/07/21 03:42:58;;;;;;;22.17;12.27;;;;;;;;;;5053027;28;20402;-74
2021/07/21 03:45:25;;;;;;;17.80;11.30;;;;;;;;;;5052615;28;20425;-74
2021/07/21 03:47:52;;;;;;;21.13;12.03;;;;;;;;;;5053374;28;20815;-74
2021/07/21 03:50:19;;;;;;;19.57;12.37;;;;;;;;;;5075557;28;20394;-74
2021/07/21 03:52:46;;;;;;;21.60;12.87;;;;;;;;;;5057935;28;20417;-74
2021/07/21 03:55:13;;;;;;;17.67;11.37;;;;;;;;;;5056550;28;20508;-74
2021/07/21 03:57:39;;;;;;;16.20;11.37;;;;;;;;;;5056600;28;20488;-74
2021/07/21 04:00:13;;;;;;;22.73;12.37;;;;;;;;;;5074522;28;20464;-74
2021/07/21 04:02:40;;;;;;;16.77;10.50;;;;;;;;;;5076515;28;20393;-74
2021/07/21 04:05:07;;;;;;;16.33;10.87;;;;;;;;;;5075286;28;20556;-74
2021/07/21 04:07:35;;;;;;;18.77;10.77;;;;;;;;;;5076448;28;20821;-74
2021/07/21 04:10:01;;;;;;;17.57;10.80;;;;;;;;;;5085291;28;20481;-73
2021/07/21 04:12:29;;;;;;;23.10;12.63;;;;;;;;;;5069504;28;20433;-74
2021/07/21 04:14:56;;;;;;;18.63;11.80;;;;;;;;;;5072588;28;20452;-74
2021/07/21 04:17:23;;;;;;;16.00;10.97;;;;;;;;;;5076238;28;20767;-74
2021/07/21 04:19:49;;;;;;;15.90;11.30;;;;;;;;;;5059960;28;20458;-73
2021/07/21 04:22:15;;;;;;;22.07;12.13;;;;;;;;;;5056436;28;20771;-74
2021/07/21 04:24:44;;;;;;;21.80;12.20;;;;;;;;;;5070216;28;20444;-74
2021/07/21 04:27:10;;;;;;;27.53;12.40;;;;;;;;;;5076017;28;20409;-74
2021/07/21 04:29:36;;;;;;;22.50;11.60;;;;;;;;;;5061749;28;20429;-73
2021/07/21 04:32:03;;;;;;;22.83;13.03;;;;;;;;;;5055946;28;20430;-74
2021/07/21 04:34:30;;;;;;;17.20;11.60;;;;;;;;;;5068169;28;20452;-74
2021/07/21 04:36:56;;;;;;;25.03;13.30;;;;;;;;;;5075826;28;20874;-74
2021/07/21 04:39:22;;;;;;;21.37;13.00;;;;;;;;;;5074840;28;20461;-74
2021/07/21 04:41:52;;;;;;;26.00;12.60;;;;;;;;;;5076050;28;20497;-74
2021/07/21 04:44:19;;;;;;;24.13;15.53;;;;;;;;;;5064724;28;20487;-74
2021/07/21 04:46:45;;;;;;;21.87;14.23;;;;;;;;;;5037903;28;20418;-74
2021/07/21 04:49:15;;;;;;;19.43;13.63;;;;;;;;;;5055798;28;20524;-73
2021/07/21 04:51:42;;;;;;;19.50;13.47;;;;;;;;;;5055650;28;20406;-74
2021/07/21 04:54:08;;;;;;;22.67;12.90;;;;;;;;;;5063964;28;20776;-74
2021/07/21 04:56:34;;;;;;;19.80;11.93;;;;;;;;;;5057632;28;20830;-74
2021/07/21 04:59:01;;;;;;;20.90;13.70;;;;;;;;;;5076824;28;20457;-74
2021/07/21 05:01:27;;;;;;;22.23;13.20;;;;;;;;;;5075171;28;20444;-73
2021/07/21 05:03:54;;;;;;;20.40;12.10;;;;;;;;;;5074449;28;20456;-74
2021/07/21 05:06:23;;;;;;;19.70;13.23;;;;;;;;;;5074391;28;20539;-73
2021/07/21 05:08:50;;;;;;;20.27;13.87;;;;;;;;;;5074324;28;20497;-74
2021/07/21 05:11:16;;;;;;;20.90;11.67;;;;;;;;;;5075358;28;20413;-74
2021/07/21 05:13:42;;;;;;;16.60;12.17;;;;;;;;;;5074121;28;20425;-73
2021/07/21 05:16:09;;;;;;;20.77;12.50;;;;;;;;;;5075168;28;20477;-74
2021/07/21 05:18:35;;;;;;;16.83;11.73;;;;;;;;;;5074134;28;20468;-74
2021/07/21 05:21:02;;;;;;;20.10;12.37;;;;;;;;;;5075346;28;20393;-73
2021/07/21 05:23:28;;;;;;;17.87;11.60;;;;;;;;;;5074375;28;20450;-73
2021/07/21 05:25:54;;;;;;;24.53;12.80;;;;;;;;;;5074991;28;20428;-74
2021/07/21 05:28:20;;;;;;;19.80;12.77;;;;;;;;;;5074087;28;20415;-74
2021/07/21 05:30:46;;;;;;;20.50;13.10;;;;;;;;;;5074906;28;20412;-74
2021/07/21 05:33:13;;;;;;;16.37;10.17;;;;;;;;;;5074772;28;20983;-74
2021/07/21 05:35:41;;;;;;;21.63;12.87;;;;;;;;;;5074285;28;20457;-74
2021/07/21 05:38:07;;;;;;;20.80;13.40;;;;;;;;;;5073729;28;20424;-73
2021/07/21 05:40:33;;;;;;;18.37;11.30;;;;;;;;;;5073631;28;20502;-73
2021/07/21 05:42:59;;;;;;;21.80;12.27;;;;;;;;;;5074721;28;20744;-73
2021/07/21 05:45:25;;;;;;;18.17;12.80;;;;;;;;;;5073503;28;20479;-73
2021/07/21 05:47:51;;;;;;;19.40;12.80;;;;;;;;;;5074530;28;20404;-73
2021/07/21 05:50:17;;;;;;;18.83;12.90;;;;;;;;;;5060897;28;20422;-73
2021/07/21 05:52:43;;;;;;;22.73;14.30;;;;;;;;;;5054742;28;20466;-73
2021/07/21 05:55:09;;;;;;;20.47;13.77;;;;;;;;;;5067545;28;21024;-73
2021/07/21 05:57:35;;;;;;;19.93;12.97;;;;;;;;;;5056440;28;20547;-74
2021/07/21 06:00:01;;;;;;;16.67;11.63;;;;;;;;;;5073205;28;20496;-74
2021/07/21 06:02:27;;;;;;;20.97;13.00;;;;;;;;;;5074549;28;20898;-74
2021/07/21 06:04:54;;;;;;;20.43;13.87;;;;;;;;;;5073033;28;20468;-74
2021/07/21 06:07:20;;;;;;;20.83;13.20;;;;;;;;;;5074670;28;20402;-73
2021/07/21 06:09:46;;;;;;;20.90;13.50;;;;;;;;;;5073504;28;20444;-73
2021/07/21 06:12:12;;;;;;;20.97;12.67;;;;;;;;;;5075026;28;20455;-73
2021/07/21 06:14:38;;;;;;;22.63;12.43;;;;;;;;;;5083648;28;20566;-73
2021/07/21 06:17:04;;;;;;;20.63;12.47;;;;;;;;;;5074392;28;20401;-73
2021/07/21 06:19:33;;;;;;;19.10;12.83;;;;;;;;;;5073375;28;20794;-73
2021/07/21 06:22:00;;;;;;;20.33;11.30;;;;;;;;;;5074432;28;20910;-73
2021/07/21 06:24:26;;;;;;;18.90;12.00;;;;;;;;;;5073536;28;20502;-73
2021/07/21 06:26:53;;;;;;;20.07;12.53;;;;;;;;;;5074112;28;20801;-73
2021/07/21 06:29:19;;;;;;;17.20;12.73;;;;;;;;;;5073058;28;20436;-73
2021/07/21 06:31:45;;;;;;;20.37;13.57;;;;;;;;;;5074752;28;20985;-73
2021/07/21 06:34:11;;;;;;;21.27;14.30;;;;;;;;;;5072873;28;20431;-73
2021/07/21 06:36:37;;;;;;;17.40;12.77;;;;;;;;;;5073576;28;20404;-73
2021/07/21 06:39:03;;;;;;;20.37;12.63;;;;;;;;;;5072135;28;20471;-73
2021/07/21 06:41:29;;;;;;;18.73;13.67;;;;;;;;;;5073604;28;20400;-73
2021/07/21 06:43:59;;;;;;;20.87;13.40;;;;;;;;;;5072583;28;20848;-73
2021/07/21 06:46:25;;;;;;;21.53;14.03;;;;;;;;;;5078688;28;20424;-73
2021/07/21 06:48:52;;;;;;;16.53;11.93;;;;;;;;;;5090840;28;20456;-73
2021/07/21 06:51:19;;;;;;;22.70;13.47;;;;;;;;;;5073666;28;20401;-73
2021/07/21 06:53:45;;;;;;;22.17;12.60;;;;;;;;;;5072600;28;20762;-73
2021/07/21 06:56:11;;;;;;;17.33;11.83;;;;;;;;;;5072220;28;20441;-73
2021/07/21 06:58:37;;;;;;;17.60;12.40;;;;;;;;;;5062761;28;20453;-73
2021/07/21 07:01:03;;;;;;;15.33;11.57;;;;;;;;;;5058861;28;20425;-73
2021/07/21 07:03:30;;;;;;;17.50;11.80;;;;;;;;;;5059264;28;20400;-74
2021/07/21 07:05:56;;;;;;;16.00;10.83;;;;;;;;;;5055775;28;20853;-73
2021/07/21 07:08:22;;;;;;;16.93;11.63;;;;;;;;;;5064543;28;20478;-74
2021/07/21 07:10:48;;;;;;;19.03;10.90;;;;;;;;;;5039374;28;20818;-74
2021/07/21 07:13:14;;;;;;;17.77;12.00;;;;;;;;;;5065413;28;20463;-74
2021/07/21 07:15:40;;;;;;;17.40;10.27;;;;;;;;;;5071505;28;20449;-73
2021/07/21 07:18:09;;;;;;;19.17;11.67;;;;;;;;;;5061975;28;20503;-74
2021/07/21 07:20:35;;;;;;;16.93;12.07;;;;;;;;;;5069998;28;20906;-74
2021/07/21 07:23:01;;;;;;;14.07;10.67;;;;;;;;;;5060160;28;20406;-74
2021/07/21 07:25:27;;;;;;;16.23;11.23;;;;;;;;;;5063159;28;20505;-75
2021/07/21 07:27:53;;;;;;;16.27;10.67;;;;;;;;;;5054470;28;20429;-74
2021/07/21 07:30:21;;;;;;;15.07;10.30;;;;;;;;;;5058777;28;20420;-74
2021/07/21 07:32:47;;;;;;;13.77;10.20;;;;;;;;;;5057063;28;20445;-72
2021/07/21 07:35:16;;;;;;;17.73;10.83;;;;;;;;;;5065400;28;20432;-72
2021/07/21 07:37:42;;;;;;;19.50;9.77;;;;;;;;;;5055179;28;20449;-72
2021/07/21 07:40:08;;;;;;;16.60;9.17;;;;;;;;;;5057099;28;20468;-73
2021/07/21 07:42:34;;;;;;;13.47;9.80;;;;;;;;;;5069611;28;20405;-73
2021/07/21 07:45:01;;;;;;;12.47;9.07;;;;;;;;;;5069007;28;20476;-73
2021/07/21 07:47:27;;;;;;;12.07;8.43;;;;;;;;;;5067847;28;20987;-73
2021/07/21 07:49:53;;;;;;;17.30;8.77;;;;;;;;;;5069576;28;20476;-71
2021/07/21 07:52:19;;;;;;;13.20;8.87;;;;;;;;;;5050489;28;20493;-71
2021/07/21 07:54:45;;;;;;;14.60;8.87;;;;;;;;;;5069911;28;20489;-71
2021/07/21 07:57:11;;;;;;;13.73;8.67;;;;;;;;;;5067352;28;20431;-71
2021/07/21 07:59:37;;;;;;;12.37;8.20;;;;;;;;;;5064933;28;20453;-73
2021/07/21 08:02:04;;;;;;;13.97;9.83;;;;;;;;;;5071156;28;20433;-72
2021/07/21 08:04:30;;;;;;;12.97;8.83;;;;;;;;;;5106466;22;20492;-69
2021/07/21 08:06:56;;;;;;;12.70;8.60;;;;;;;;;;5048605;28;20468;-66
2021/07/21 08:09:22;;;;;;;12.37;7.90;;;;;;;;;;5038800;28;20939;-67
2021/07/21 08:11:52;;;;;;;14.30;8.40;;;;;;;;;;5052941;28;20833;-66
2021/07/21 08:14:18;;;;;;;14.13;9.07;;;;;;;;;;5052394;28;20482;-66
2021/07/21 08:16:45;;;;;;;15.80;8.13;;;;;;;;;;5051724;28;20449;-66
2021/07/21 08:19:11;;;;;;;12.23;8.10;;;;;;;;;;5052415;28;20448;-66
2021/07/21 08:21:37;;;;;;;12.97;8.30;;;;;;;;;;5050850;28;20451;-66
2021/07/21 08:24:03;;;;;;;13.17;8.37;;;;;;;;;;5052099;28;20977;-66
2021/07/21 08:26:29;;;;;;;11.00;8.20;;;;;;;;;;5051411;28;20913;-66
2021/07/21 08:28:55;;;;;;;17.20;8.13;;;;;;;;;;5052732;28;20547;-66
2021/07/21 08:31:21;;;;;;;12.63;8.20;;;;;;;;;;5051576;28;20433;-66
2021/07/21 08:33:48;;;;;;;12.97;7.43;;;;;;;;;;5052073;28;20453;-66
2021/07/21 08:36:14;;;;;;;12.20;8.40;;;;;;;;;;5054026;28;20491;-67
2021/07/21 08:38:40;;;;;;;11.20;7.60;;;;;;;;;;5056397;28;20457;-67
2021/07/21 08:41:06;;;;;;;13.33;8.43;;;;;;;;;;5054962;28;20432;-66
2021/07/21 08:43:32;;;;;;;11.10;8.30;;;;;;;;;;5057191;28;20424;-67
2021/07/21 08:46:12;;;;;;;11.83;8.07;;;;;;;;;;5056392;28;20452;-67
2021/07/21 08:48:38;;;;;;;11.70;7.67;;;;;;;;;;5056780;28;20416;-67
2021/07/21 08:51:04;;;;;;;12.20;8.63;;;;;;;;;;5054927;28;20507;-67
2021/07/21 08:53:30;;;;;;;18.03;7.90;;;;;;;;;;5055373;28;20413;-66
2021/07/21 08:55:57;;;;;;;15.30;8.47;;;;;;;;;;5054736;28;20846;-67
2021/07/21 08:58:23;;;;;;;11.03;7.43;;;;;;;;;;5055565;28;20455;-66
2021/07/21 09:00:53;;;;;;;10.30;8.40;;;;;;;;;;5055210;28;20421;-66
2021/07/21 09:03:21;;;;;;;9.37;6.90;;;;;;;;;;5055285;28;20830;-66
2021/07/21 09:05:48;;;;;;;12.27;8.20;;;;;;;;;;5054700;28;20453;-66
2021/07/21 09:08:15;;;;;;;13.80;8.40;;;;;;;;;;5048392;28;20406;-67
2021/07/21 09:10:42;;;;;;;11.20;8.13;;;;;;;;;;5042490;28;20929;-66
2021/07/21 09:13:08;;;;;;;12.33;8.90;;;;;;;;;;5052540;28;20491;-67
2021/07/21 09:15:34;;;;;;;12.07;7.40;;;;;;;;;;5053047;28;20454;-67
2021/07/21 09:18:01;;;;;;;11.40;7.23;;;;;;;;;;5053016;28;20425;-67
2021/07/21 09:20:27;;;;;;;10.73;7.97;;;;;;;;;;5054339;28;20457;-67
2021/07/21 09:22:54;;;;;;;10.70;8.67;;;;;;;;;;5054734;28;20409;-67
2021/07/21 09:25:23;;;;;;;11.77;8.10;;;;;;;;;;5054021;28;20453;-67
2021/07/21 09:27:54;;;;;;;12.03;7.50;;;;;;;;;;5053621;28;20452;-66
2021/07/21 09:30:27;;;;;;;10.20;8.50;;;;;;;;;;5053398;28;20468;-66
2021/07/21 09:32:53;;;;;;;15.53;9.60;;;;;;;;;;5050400;28;20420;-67
2021/07/21 09:35:20;;;;;;;15.07;9.30;;;;;;;;;;5053695;28;20520;-65
2021/07/21 09:37:47;;;;;;;15.13;8.00;;;;;;;;;;5053936;28;20421;-68
2021/07/21 09:40:13;;;;;;;17.30;8.40;;;;;;;;;;5053263;28;20496;-68
2021/07/21 09:42:39;;;;;;;12.13;8.90;;;;;;;;;;5054757;28;20406;-67
2021/07/21 09:45:09;;;;;;;11.03;7.53;;;;;;;;;;5054718;28;20789;-67
2021/07/21 09:47:39;;;;;;;8.77;7.50;;;;;;;;;;5053628;28;20512;-68
2021/07/21 09:50:13;;;;;;;11.40;7.93;;;;;;;;;;5054740;28;20402;-67
2021/07/21 09:52:46;;;;;;;12.53;8.30;;;;;;;;;;5068725;28;20455;-67
2021/07/21 09:55:14;;;;;;;9.70;8.40;;;;;;;;;;5073129;28;20421;-67
2021/07/21 09:57:41;;;;;;;10.40;8.60;;;;;;;;;;5054343;28;20826;-66
2021/07/21 10:00:21;;;;;;;10.87;8.23;;;;;;;;;;5053830;28;20448;-66
2021/07/21 10:02:47;;;;;;;13.20;9.00;;;;;;;;;;5053895;28;20761;-66
2021/07/21 10:05:14;;;;;;;13.80;9.00;;;;;;;;;;5053388;28;20445;-67
2021/07/21 10:07:49;;;;;;;14.97;8.23;;;;;;;;;;5053491;28;20472;-66
2021/07/21 10:10:22;;;;;;;12.67;9.10;;;;;;;;;;5053606;28;20389;-67
2021/07/21 10:13:01;;;;;;;13.23;8.80;;;;;;;;;;5034311;28;20410;-65
2021/07/21 10:15:28;;;;;;;11.80;8.30;;;;;;;;;;5034426;28;20426;-67
2021/07/21 10:18:04;;;;;;;16.67;9.27;;;;;;;;;;5053925;28;20766;-66
2021/07/21 10:20:30;;;;;;;16.73;7.97;;;;;;;;;;5050791;28;20774;-67
2021/07/21 10:22:56;;;;;;;13.17;10.13;;;;;;;;;;5053760;28;20446;-66
2021/07/21 10:25:23;;;;;;;14.10;9.60;;;;;;;;;;5051711;28;20911;-67
2021/07/21 10:27:50;;;;;;;13.40;10.23;;;;;;;;;;5053011;28;22385;-67
2021/07/21 10:30:16;;;;;;;12.13;9.13;;;;;;;;;;5051755;28;20991;-66
2021/07/21 10:32:42;;;;;;;12.37;10.33;;;;;;;;;;5052638;28;20519;-66
2021/07/21 10:35:10;;;;;;;12.00;8.63;;;;;;;;;;5053013;28;20503;-66
2021/07/21 10:37:39;;;;;;;12.97;9.83;;;;;;;;;;5052440;28;20421;-67
2021/07/21 10:40:07;;;;;;;11.63;9.30;;;;;;;;;;5053197;28;20536;-67
2021/07/21 10:42:33;;;;;;;12.30;9.20;;;;;;;;;;5052463;28;20817;-66
2021/07/21 10:45:19;;;;;;;12.77;9.60;;;;;;;;;;5050870;28;20433;-67
2021/07/21 10:47:45;;;;;;;13.50;9.63;;;;;;;;;;5052521;28;20508;-66
2021/07/21 10:50:26;;;;;;;12.00;8.53;;;;;;;;;;5052954;28;20414;-67
2021/07/21 10:53:12;;;;;;;10.77;8.90;;;;;;;;;;5052336;28;20511;-66
2021/07/21 10:55:45;;;;;;;12.50;9.20;;;;;;;;;;5050509;28;20949;-66
2021/07/21 11:00:56;;;;;;;13.77;9.47;;;;;;;;;;5043228;28;20436;-65
2021/07/21 11:03:22;;;;;;;15.53;9.70;;;;;;;;;;5053572;28;20812;-65
2021/07/21 11:05:59;;;;;;;11.33;8.37;;;;;;;;;;5052054;28;20453;-66
2021/07/21 11:08:26;;;;;;;12.23;8.93;;;;;;;;;;5053492;28;20416;-67
2021/07/21 11:10:53;;;;;;;13.10;9.10;;;;;;;;;;5039450;28;20432;-67
2021/07/21 11:13:28;;;;;;;16.33;10.70;;;;;;;;;;5052659;28;20774;-66
2021/07/21 11:15:55;;;;;;;12.30;8.80;;;;;;;;;;5051491;28;20845;-66
2021/07/21 11:18:26;;;;;;;12.30;8.87;;;;;;;;;;5047201;28;20515;-68
2021/07/21 11:21:04;;;;;;;13.33;10.53;;;;;;;;;;5048524;28;20405;-67
2021/07/21 11:23:39;;;;;;;11.30;9.23;;;;;;;;;;5052977;28;20405;-67
2021/07/21 11:26:24;;;;;;;13.07;9.80;;;;;;;;;;5051355;28;20845;-67
2021/07/21 11:28:50;;;;;;;15.37;9.70;;;;;;;;;;5050941;28;20405;-67
2021/07/21 11:31:16;;;;;;;15.00;10.03;;;;;;;;;;5036095;28;20429;-68
2021/07/21 11:33:50;;;;;;;13.27;9.33;;;;;;;;;;5063187;28;20902;-67
2021/07/21 11:36:47;;;;;;;13.13;8.87;;;;;;;;;;5051793;28;20790;-66
2021/07/21 11:39:33;;;;;;;14.00;8.10;;;;;;;;;;5020842;28;20472;-66
2021/07/21 11:42:00;;;;;;;12.50;8.90;;;;;;;;;;5041848;28;20425;-66
2021/07/21 11:44:38;;;;;;;13.10;9.00;;;;;;;;;;5064641;28;20447;-67
2021/07/21 11:47:06;;;;;;;14.03;9.10;;;;;;;;;;5066378;28;20456;-68
2021/07/21 11:49:33;;;;;;;12.57;9.53;;;;;;;;;;5073068;28;20408;-69
2021/07/21 11:52:04;;;;;;;14.63;10.10;;;;;;;;;;5062518;28;20417;-67
2021/07/21 11:54:39;;;;;;;14.47;9.83;;;;;;;;;;5052618;28;20444;-67
2021/07/21 11:57:08;;;;;;;13.37;9.37;;;;;;;;;;5050383;28;20421;-67
2021/07/21 11:59:34;;;;;;;13.03;8.83;;;;;;;;;;5050175;28;20485;-66
2021/07/21 12:02:18;;;;;;;12.53;9.80;;;;;;;;;;5051075;28;20925;-66
2021/07/21 12:04:49;;;;;;;12.57;9.30;;;;;;;;;;5051269;28;20452;-66
2021/07/21 12:07:17;;;;;;;11.33;8.97;;;;;;;;;;5051854;28;20433;-66
2021/07/21 12:09:45;;;;;;;12.90;9.37;;;;;;;;;;5052513;28;20411;-65
2021/07/21 12:12:14;;;;;;;20.57;9.83;;;;;;;;;;5055164;28;20417;-65
2021/07/21 12:14:41;;;;;;;10.20;7.87;;;;;;;;;;5056028;28;20424;-65
2021/07/21 12:17:10;;;;;;;13.03;10.37;;;;;;;;;;5055082;28;20516;-64
2021/07/21 12:19:55;;;;;;;12.27;9.43;;;;;;;;;;5056005;28;20787;-66
2021/07/21 12:22:22;;;;;;;13.70;9.33;;;;;;;;;;5054900;28;20925;-65
2021/07/21 12:24:52;;;;;;;14.20;9.70;;;;;;;;;;5055725;28;20519;-66
2021/07/21 12:27:30;;;;;;;11.90;9.00;;;;;;;;;;5055208;28;20786;-66
2021/07/21 12:30:07;;;;;;;10.30;7.97;;;;;;;;;;5056058;28;20874;-66
2021/07/21 12:32:33;;;;;;;17.50;9.80;;;;;;;;;;5054900;28;20948;-66
2021/07/21 12:34:59;;;;;;;14.00;9.17;;;;;;;;;;5055684;28;20433;-66
2021/07/21 12:37:30;;;;;;;11.80;9.10;;;;;;;;;;5055077;28;20587;-65
2021/07/21 12:39:57;;;;;;;13.03;9.57;;;;;;;;;;5058768;28;20506;-66
2021/07/21 12:42:25;;;;;;;16.57;9.93;;;;;;;;;;5064929;28;20482;-66
2021/07/21 12:44:51;;;;;;;13.13;9.53;;;;;;;;;;5055489;28;20516;-66
2021/07/21 12:47:25;;;;;;;12.03;8.87;;;;;;;;;;5054075;28;20512;-65
2021/07/21 12:49:55;;;;;;;16.27;11.00;;;;;;;;;;5054099;28;20483;-65
2021/07/21 12:52:22;;;;;;;16.30;9.63;;;;;;;;;;5054158;28;20930;-65
2021/07/21 12:54:52;;;;;;;14.43;10.97;;;;;;;;;;5054447;28;20433;-65
2021/07/21 12:57:36;;;;;;;12.10;9.53;;;;;;;;;;5053775;28;20434;-65
2021/07/21 13:00:20;;;;;;;14.80;9.37;;;;;;;;;;5046736;28;20532;-65
2021/07/21 13:03:05;;;;;;;11.27;7.90;;;;;;;;;;5047710;28;20757;-66
2021/07/21 13:05:41;;;;;;;12.43;8.90;;;;;;;;;;5035125;28;20441;-65
2021/07/21 13:08:11;;;;;;;13.70;10.30;;;;;;;;;;5044177;28;20772;-66
2021/07/21 13:10:42;;;;;;;15.80;8.43;;;;;;;;;;5071771;28;20424;-66
2021/07/21 13:13:19;;;;;;;14.73;10.13;;;;;;;;;;5042394;28;20437;-65
2021/07/21 13:15:45;;;;;;;13.00;9.00;;;;;;;;;;5054472;28;20547;-66
2021/07/21 13:18:15;;;;;;;13.07;8.77;;;;;;;;;;5055179;28;20417;-65
2021/07/21 13:20:43;;;;;;;12.53;8.87;;;;;;;;;;5036140;28;20415;-66
2021/07/21 13:23:13;;;;;;;12.30;8.80;;;;;;;;;;5038164;28;20444;-67
2021/07/21 13:25:39;;;;;;;14.07;9.53;;;;;;;;;;5054082;28;20422;-66
2021/07/21 13:28:22;;;;;;;16.10;8.80;;;;;;;;;;5052561;28;20421;-67
2021/07/21 13:30:48;;;;;;;11.40;9.17;;;;;;;;;;5044933;28;20412;-67
2021/07/21 13:33:15;;;;;;;12.87;8.63;;;;;;;;;;5058166;28;20445;-67
2021/07/21 13:35:41;;;;;;;13.37;9.13;;;;;;;;;;5041455;28;20422;-66
2021/07/21 13:38:07;;;;;;;11.63;8.70;;;;;;;;;;5053784;28;20460;-66
2021/07/21 13:40:33;;;;;;;16.03;10.00;;;;;;;;;;5043183;28;20458;-66
2021/07/21 13:43:09;;;;;;;11.40;8.60;;;;;;;;;;5048954;28;20464;-66
2021/07/21 13:45:35;;;;;;;12.00;8.50;;;;;;;;;;5054593;28;20417;-66
2021/07/21 13:48:01;;;;;;;12.23;8.77;;;;;;;;;;5052307;28;20418;-67
2021/07/21 13:50:28;;;;;;;11.93;8.50;;;;;;;;;;5054344;28;20412;-66
2021/07/21 13:53:05;;;;;;;13.17;7.53;;;;;;;;;;5041488;28;20457;-67
2021/07/21 13:55:31;;;;;;;12.23;8.50;;;;;;;;;;5034237;28;20798;-66
2021/07/21 13:57:58;;;;;;;14.80;10.00;;;;;;;;;;5050280;28;20409;-66
2021/07/21 14:00:24;;;;;;;11.33;9.30;;;;;;;;;;5053632;28;20454;-66
2021/07/21 14:02:51;;;;;;;14.10;9.13;;;;;;;;;;5053637;28;21001;-66
2021/07/21 14:05:17;;;;;;;12.70;9.37;;;;;;;;;;5053102;28;20780;-67
2021/07/21 14:07:43;;;;;;;13.43;8.30;;;;;;;;;;5053446;28;20504;-66
2021/07/21 14:10:09;;;;;;;13.80;10.27;;;;;;;;;;5051763;28;20435;-67
2021/07/21 14:12:35;;;;;;;12.63;9.27;;;;;;;;;;5052637;28;20754;-66
2021/07/21 14:15:01;;;;;;;12.23;9.07;;;;;;;;;;5051429;28;20552;-67
2021/07/21 14:17:27;;;;;;;13.70;9.27;;;;;;;;;;5053116;28;20424;-67
2021/07/21 14:19:53;;;;;;;13.63;8.87;;;;;;;;;;5053236;28;20544;-66
2021/07/21 14:22:19;;;;;;;11.30;8.90;;;;;;;;;;5053862;28;20413;-67
2021/07/21 14:24:45;;;;;;;11.23;8.40;;;;;;;;;;5051363;28;21151;-66
2021/07/21 14:27:11;;;;;;;13.87;8.30;;;;;;;;;;5054168;28;20397;-66
2021/07/21 14:29:38;;;;;;;11.00;9.47;;;;;;;;;;5050439;28;20439;-66
2021/07/21 14:32:04;;;;;;;11.03;8.33;;;;;;;;;;5048940;28;20424;-66
2021/07/21 14:34:30;;;;;;;9.50;8.00;;;;;;;;;;5051044;28;20457;-66
2021/07/21 14:36:56;;;;;;;11.80;8.50;;;;;;;;;;5053979;28;20417;-67
2021/07/21 14:39:23;;;;;;;13.53;9.60;;;;;;;;;;5052665;28;20514;-66